Map

Track Data

SID SEASON NUMBER BASIN SUBBASIN NAME ISO_TIME NATURE LAT LON WMO_WIND WMO_PRES WMO_AGENCY TRACK_TYPE DIST2LAND LANDFALL IFLAG USA_AGENCY USA_ATCF_ID USA_LAT USA_LON USA_RECORD USA_STATUS USA_WIND USA_PRES USA_SSHS USA_R34_NE USA_R34_SE USA_R34_SW USA_R34_NW USA_R50_NE USA_R50_SE USA_R50_SW USA_R50_NW USA_R64_NE USA_R64_SE USA_R64_SW USA_R64_NW USA_POCI USA_ROCI USA_RMW USA_EYE TOKYO_LAT TOKYO_LON TOKYO_GRADE TOKYO_WIND TOKYO_PRES TOKYO_R50_DIR TOKYO_R50_LONG TOKYO_R50_SHORT TOKYO_R30_DIR TOKYO_R30_LONG TOKYO_R30_SHORT TOKYO_LAND CMA_LAT CMA_LON CMA_CAT CMA_WIND CMA_PRES HKO_LAT HKO_LON HKO_CAT HKO_WIND HKO_PRES NEWDELHI_LAT NEWDELHI_LON NEWDELHI_GRADE NEWDELHI_WIND NEWDELHI_PRES NEWDELHI_CI NEWDELHI_DP NEWDELHI_POCI REUNION_LAT REUNION_LON REUNION_TYPE REUNION_WIND REUNION_PRES REUNION_TNUM REUNION_CI REUNION_RMW REUNION_R34_NE REUNION_R34_SE REUNION_R34_SW REUNION_R34_NW REUNION_R50_NE REUNION_R50_SE REUNION_R50_SW REUNION_R50_NW REUNION_R64_NE REUNION_R64_SE REUNION_R64_SW REUNION_R64_NW BOM_LAT BOM_LON BOM_TYPE BOM_WIND BOM_PRES BOM_TNUM BOM_CI BOM_RMW BOM_R34_NE BOM_R34_SE BOM_R34_SW BOM_R34_NW BOM_R50_NE BOM_R50_SE BOM_R50_SW BOM_R50_NW BOM_R64_NE BOM_R64_SE BOM_R64_SW BOM_R64_NW BOM_ROCI BOM_POCI BOM_EYE BOM_POS_METHOD BOM_PRES_METHOD NADI_LAT NADI_LON NADI_CAT NADI_WIND NADI_PRES WELLINGTON_LAT WELLINGTON_LON WELLINGTON_WIND WELLINGTON_PRES DS824_LAT DS824_LON DS824_STAGE DS824_WIND DS824_PRES TD9636_LAT TD9636_LON TD9636_STAGE TD9636_WIND TD9636_PRES TD9635_LAT TD9635_LON TD9635_WIND TD9635_PRES TD9635_ROCI NEUMANN_LAT NEUMANN_LON NEUMANN_CLASS NEUMANN_WIND NEUMANN_PRES MLC_LAT MLC_LON MLC_CLASS MLC_WIND MLC_PRES USA_GUST BOM_GUST BOM_GUST_PER REUNION_GUST REUNION_GUST_PER USA_SEAHGT USA_SEARAD_NE USA_SEARAD_SE USA_SEARAD_SW USA_SEARAD_NW STORM_SPEED STORM_DIR
1949219N26129 1949 53 WP MM NOT_NAMED 1949-08-07 06:00:00 TS 26.1000 128.500 main 587 587 __O___________ -1 26.1000 128.500 0 1006 6 248
1949219N26129 1949 53 WP MM NOT_NAMED 1949-08-07 09:00:00 TS 25.9877 128.190 main 609 600 __P___________ -1 25.9877 128.190 0 1006 6 250
1949219N26129 1949 53 WP MM NOT_NAMED 1949-08-07 12:00:00 TS 25.9000 127.900 main 600 580 __O___________ -1 25.9000 127.900 0 1006 5 254
1949219N26129 1949 53 WP MM NOT_NAMED 1949-08-07 15:00:00 TS 25.8499 127.643 main 569 549 __P___________ -1 25.8499 127.643 0 1005 5 257
1949219N26129 1949 53 WP MM NOT_NAMED 1949-08-07 18:00:00 TS 25.8000 127.400 main 549 527 __O___________ -1 25.8000 127.400 0 1004 5 252
1949219N26129 1949 53 WP MM NOT_NAMED 1949-08-07 21:00:00 TS 25.7074 127.165 main 527 496 __P___________ -1 25.7074 127.165 0 1004 5 246
1949219N26129 1949 53 WP MM NOT_NAMED 1949-08-08 00:00:00 TS 25.6000 126.900 main 496 465 __O___________ -1 25.6000 126.900 0 1004 6 249
1949219N26129 1949 53 WP MM NOT_NAMED 1949-08-08 03:00:00 TS 25.4926 126.557 main 465 424 __P___________ -1 25.4926 126.557 0 1003 7 252
1949219N26129 1949 53 WP MM NOT_NAMED 1949-08-08 06:00:00 TS 25.4000 126.200 main 424 393 __O___________ -1 25.4000 126.200 1 23 1002 6 255
1949219N26129 1949 53 WP MM NOT_NAMED 1949-08-08 09:00:00 TS 25.3349 125.893 main 393 363 __P___________ -1 25.3349 125.893 1 23 1002 6 260
1949219N26129 1949 53 WP MM NOT_NAMED 1949-08-08 12:00:00 TS 25.3000 125.600 main 363 333 __O___________ -1 25.3000 125.600 1 23 1002 5 265
1949219N26129 1949 53 WP MM NOT_NAMED 1949-08-08 15:00:00 TS 25.2848 125.315 main 333 303 __P___________ -1 25.2848 125.315 1 23 1002 5 270
1949219N26129 1949 53 WP MM NOT_NAMED 1949-08-08 18:00:00 TS 25.3000 125.000 main 303 273 __O___________ -1 25.3000 125.000 1 23 1002 5 272
1949219N26129 1949 53 WP MM NOT_NAMED 1949-08-08 21:00:00 TS 25.3038 124.712 main 273 225 __P___________ -1 25.3038 124.712 1 23 1002 7 278
1949219N26129 1949 53 WP MM NOT_NAMED 1949-08-09 00:00:00 TS 25.4000 124.200 main 225 146 __O___________ -1 25.4000 124.200 1 23 1002 14 283
1949219N26129 1949 53 WP MM NOT_NAMED 1949-08-09 03:00:00 TS 25.6114 123.225 main 137 98 __P___________ -1 25.6114 123.225 1 1002 20 288
1949219N26129 1949 53 WP MM NOT_NAMED 1949-08-09 06:00:00 TS 26.0000 122.100 main 102 96 __O___________ -1 26.0000 122.100 0 1002 21 297
1949219N26129 1949 53 WP MM NOT_NAMED 1949-08-09 09:00:00 TS 26.5897 121.133 main 89 0 __P___________ -1 26.5897 121.133 0 1003 21 309
1949219N26129 1949 53 WP MM NOT_NAMED 1949-08-09 12:00:00 TS 27.3000 120.300 main 0 0 __O___________ -1 27.3000 120.300 0 1005 19 317
1949219N26129 1949 53 WP MM NOT_NAMED 1949-08-09 15:00:00 TS 28.0076 119.648 main 0 0 __P___________ -1 28.0076 119.648 0 1005 18 323
1949219N26129 1949 53 WP MM NOT_NAMED 1949-08-09 18:00:00 TS 28.7000 119.100 main 0 __O___________ -1 28.7000 119.100 0 1006 17 325

Digital Typhoon Data and Search

About IBTrACS Database

This database is a web-friendly format of International Best Track Archive for Climate Stewardship (IBTrACS), a global best track data archive curated by NOAA dating back to 1842.

Updated: 2021-10-25